Scroll for more >

River gauges, storages, and weirs in the Murray–Darling Basin

Type Locationsort descending River Water level Flow Volume Release Water temp Salinity Rainfall
River Gauge Albury (Union Bridge) Murray 0.99 m 29/06/2017 6:00 Not measured Not measured Not measured 10.6°C 29/06/2017 6:00 63.2 μS/cm 29/06/2017 6:00 Not measured Full data
River Gauge Balranald Murrumbidgee 1.59 m 29/06/2017 5:45 1093 ML/Day 29/06/2017 5:45 Not measured Not measured 9.4°C 29/06/2017 5:45 181.0 μS/cm 29/06/2017 5:45 Not measured Full data
River Gauge Bandiana Kiewa 0.96 m 29/06/2017 5:45 476 ML/Day 29/06/2017 5:45 Not measured Not measured 6.9°C 29/06/2017 5:45 47.0 μS/cm 29/06/2017 5:45 Not measured Full data
River Gauge Biggara Murray 0.36 m 29/06/2017 6:00 355 ML/Day 29/06/2017 6:00 Not measured Not measured 4.9°C 29/06/2017 6:00 58.7 μS/cm 29/06/2017 6:00 0.2 mm 28/06/2017 9:00 Full data
River Gauge Bringenbrong Bridge Murray 2 m 29/06/2017 6:00 7338 ML/Day 29/06/2017 6:00 Not measured Not measured Not measured Not measured Not measured Full data
River Gauge Burtundy Darling 0.8 m 29/06/2017 5:45 334 ML/Day 29/06/2017 5:45 Not measured Not measured 10.5°C 29/06/2017 5:45 613.7 μS/cm 29/06/2017 5:45 Not measured Full data
River Gauge Colemans Mitta 0.87 m 29/06/2017 6:15 203 ML/Day 29/06/2017 6:15 Not measured Not measured 9.3°C 29/06/2017 5:45 44.4 μS/cm 29/06/2017 5:45 Not measured Full data
River Gauge Colignan Murray 1.81 m 29/06/2017 5:30 5839 ML/Day 29/06/2017 5:30 Not measured Not measured 11.5°C 29/06/2017 5:30 158.8 μS/cm 29/06/2017 5:30 Not measured Full data
River Gauge Corowa Murray 1.15 m 29/06/2017 6:00 3628 ML/Day 29/06/2017 6:00 Not measured Not measured 9.4°C 29/06/2017 6:00 71.1 μS/cm 29/06/2017 6:00 Not measured Full data
Storage Dartmouth Dam Mitta 472.21 m 29/06/2017 6:15 Not measured 3016 GL 29/06/2017 6:15 Not measured Not measured Not measured Not measured Full data
River Gauge Doctors Point Murray 1.91 m 29/06/2017 6:00 3285 ML/Day 29/06/2017 6:00 Not measured Not measured 11.0°C 29/06/2017 6:00 53.8 μS/cm 29/06/2017 6:00 Not measured Full data
River Gauge Echuca Wharf Murray 86.28 m 28/06/2017 7:45 Not measured Not measured Not measured Not measured Not measured Not measured Full data
River Gauge Edward Escape Wakool 0.04 m 29/06/2017 5:45 7 ML/Day 29/06/2017 5:45 Not measured Not measured 9.0°C 29/06/2017 5:45 83.8 μS/cm 29/06/2017 5:45 Not measured Full data
River Gauge Edward River Offtake Murray 1.64 m 29/06/2017 6:00 595 ML/Day 29/06/2017 6:00 Not measured Not measured 9.0°C 29/06/2017 5:45 63.2 μS/cm 29/06/2017 5:45 Not measured Full data
Weirs Euston Weir Downstream Murray 43.08 m 29/06/2017 5:45 5324 ML/Day 29/06/2017 5:45 Not measured Not measured 10.2°C 29/06/2017 5:45 150.5 μS/cm 29/06/2017 5:45 Not measured Full data
Weirs Euston Weir Upstream Murray 47.4 m 28/06/2017 7:45 Not measured 34 GL 28/06/2017 7:45 Not measured Not measured Not measured 0.0 mm 27/06/2017 9:00 Full data
River Gauge Flow to South Australia Murray Not measured Not measured Not measured 6723.7 ML/d28/06/2017 7:45 Not measured Not measured Not measured Full data
River Gauge Frenchman Creek Murray 27.29 m 28/06/2017 7:45 Not measured Not measured 1064.0 ML/d28/06/2017 7:45 Not measured Not measured Not measured Full data
River Gauge Gulpa Creek Offtake Murray 2.09 m 29/06/2017 5:45 192 ML/Day 29/06/2017 5:45 Not measured Not measured Not measured Not measured Not measured Full data
River Gauge Hinnomunjie Mitta 0.57 m 29/06/2017 5:45 266 ML/Day 29/06/2017 5:45 Not measured Not measured 4.1°C 29/06/2017 5:45 54.0 μS/cm 29/06/2017 5:45 0.0 mm 28/06/2017 9:00 Full data
Storage Hume Dam Murray 187.05 m 29/06/2017 6:15 Not measured 2102 GL 29/06/2017 6:15 2700.0 ML/d28/06/2017 8:00 Not measured Not measured 0.0 mm 28/06/2017 9:00 Full data
River Gauge Jingellic Murray 2.06 m 29/06/2017 5:45 7581 ML/Day 29/06/2017 5:45 Not measured Not measured 8.5°C 29/06/2017 5:45 33.3 μS/cm 29/06/2017 5:45 0.0 mm 28/06/2017 9:00 Full data
River Gauge Kerang Loddon 0.34 m 29/06/2017 5:45 147 ML/Day 29/06/2017 5:45 Not measured Not measured 9.1°C 29/06/2017 5:45 1216.2 μS/cm 29/06/2017 5:45 Not measured Full data
River Gauge Lake Albert Murray 0.73 m 29/06/2017 5:45 Not measured 267 GL 29/06/2017 5:45 Not measured Not measured Not measured Not measured Full data
River Gauge Lake Alexandrina Murray 0.69 m 29/06/2017 5:45 Not measured 1575 GL 29/06/2017 5:45 Not measured Not measured 569.0 μS/cm 29/06/2017 4:45 Not measured Full data
Storage Lake Victoria Murray 24.79 m 29/06/2017 4:45 Not measured 425 GL 29/06/2017 4:45 Not measured 12.0°C 29/06/2017 4:45 227.1 μS/cm 29/06/2017 4:45 Not measured Full data
Weirs Lock 1 Downstream Murray 0.74 m 29/06/2017 4:45 Not measured Not measured 6141.3 ML/d28/06/2017 7:45 Not measured Not measured Not measured Full data
Weirs Lock 1 Upstream Murray 3.13 m 29/06/2017 4:45 Not measured Not measured Not measured 12.0°C 29/06/2017 4:45 451.3 μS/cm 29/06/2017 4:45 Not measured Full data
Weirs Lock 2 Downstream Murray 3.39 m 29/06/2017 4:45 Not measured Not measured Not measured Not measured Not measured Not measured Full data
Weirs Lock 2 Upstream Murray 6.1 m 29/06/2017 4:45 Not measured Not measured Not measured 12.2°C 29/06/2017 4:45 421.8 μS/cm 29/06/2017 4:45 Not measured Full data
Weirs Lock 3 Downstream Murray 6.37 m 29/06/2017 4:45 Not measured Not measured Not measured Not measured Not measured Not measured Full data
Weirs Lock 3 Upstream Murray 9.82 m 29/06/2017 4:45 Not measured Not measured Not measured Not measured Not measured Not measured Full data
Weirs Lock 4 Downstream Murray 10.61 m 29/06/2017 4:45 Not measured Not measured Not measured Not measured Not measured Not measured Full data
Weirs Lock 4 Upstream Murray 13.23 m 29/06/2017 4:45 Not measured Not measured Not measured Not measured Not measured Not measured Full data
Weirs Lock 5 Downstream Murray 13.4 m 29/06/2017 4:45 Not measured Not measured Not measured Not measured Not measured Not measured Full data
Weirs Lock 5 Upstream Murray 16.31 m 29/06/2017 4:45 Not measured Not measured Not measured 12.1°C 29/06/2017 4:45 331.5 μS/cm 29/06/2017 4:45 Not measured Full data
Weirs Lock 6 Downstream Murray 16.39 m 29/06/2017 4:45 Not measured Not measured Not measured Not measured Not measured Not measured Full data
Weirs Lock 6 Upstream Murray 19.27 m 29/06/2017 4:45 Not measured Not measured Not measured 11.7°C 29/06/2017 4:45 261.2 μS/cm 29/06/2017 4:45 Not measured Full data
Weirs Lock 7 Downstream Murray 20.45 m 29/06/2017 4:45 Not measured Not measured Not measured Not measured Not measured Not measured Full data
Weirs Lock 7 Upstream Murray 21.58 m 29/06/2017 4:45 Not measured Not measured Not measured 11.7°C 29/06/2017 4:45 241.6 μS/cm 29/06/2017 4:45 Not measured Full data
Weirs Lock 8 Upstream Murray 23.9 m 29/06/2017 4:45 Not measured Not measured Not measured 11.7°C 29/06/2017 4:45 233.7 μS/cm 29/06/2017 4:45 Not measured Full data
Weirs Lock 9 Downstream Murray 23.98 m 29/06/2017 4:45 Not measured Not measured Not measured Not measured Not measured Not measured Full data
Weirs Lock 9 Upstream Murray 27.35 m 29/06/2017 4:45 Not measured Not measured Not measured 11.8°C 29/06/2017 4:45 225.2 μS/cm 29/06/2017 4:45 Not measured Full data
River Gauge McCoy Bridge Goulburn 4.09 m 29/06/2017 5:45 6256 ML/Day 29/06/2017 5:45 Not measured Not measured 8.9°C 29/06/2017 5:45 94.0 μS/cm 29/06/2017 5:45 Not measured Full data
Storage Menindee Lakes Darling Not measured Not measured 769 GL 28/06/2017 7:45 Not measured Not measured Not measured Not measured Full data
Weirs Mildura Weir downstream Murray 30.88 m 29/06/2017 5:30 Not measured Not measured Not measured 11.1°C 29/06/2017 5:30 209.4 μS/cm 29/06/2017 5:30 Not measured Full data
River Gauge Morgan Downstream Murray Not measured Not measured Not measured 3655.3 ML/d29/06/2017 4:45 Not measured 420.9 μS/cm 29/06/2017 2:45 Not measured Full data
River Gauge Mulwala Canal Murray Not measured Not measured Not measured 0.0 ML/d28/06/2017 7:45 Not measured Not measured Not measured Full data
River Gauge Mundoo Barrage Murray 0.69 m 28/06/2017 7:45 Not measured Not measured Not measured Not measured Not measured Not measured Full data
River Gauge Murray Bridge Murray 0.68 m 29/06/2017 4:45 Not measured Not measured Not measured 12.5°C 29/06/2017 4:45 587.3 μS/cm 29/06/2017 4:45 Not measured Full data
River Gauge Peechelba Ovens 126.53 m 29/06/2017 5:45 598 ML/Day 29/06/2017 5:45 Not measured Not measured 6.7°C 29/06/2017 5:45 83.0 μS/cm 29/06/2017 5:45 Not measured Full data
River Gauge Pinegrove Murray 1.16 m 29/06/2017 6:00 229 ML/Day 29/06/2017 6:00 Not measured Not measured 5.3°C 29/06/2017 6:00 105.1 μS/cm 29/06/2017 6:00 0.0 mm 28/06/2017 9:00 Full data
River Gauge Rochester Campaspe 1.87 m 29/06/2017 5:45 205 ML/Day 29/06/2017 5:45 Not measured Not measured 8.9°C 29/06/2017 5:45 460.0 μS/cm 29/06/2017 5:45 0.0 mm 28/06/2017 9:00 Full data
River Gauge Rufus River Murray 20.56 m 28/06/2017 7:45 Not measured Not measured 1677.0 ML/d28/06/2017 7:45 Not measured 239.9 μS/cm 29/06/2017 2:45 Not measured Full data
Weirs Steven's Weir Downstream Wakool 0.81 m 29/06/2017 5:45 472 ML/Day 29/06/2017 5:45 Not measured Not measured 9.3°C 29/06/2017 5:45 77.3 μS/cm 29/06/2017 5:45 0.0 mm 27/06/2017 9:00 Full data
Weirs Steven's Weir Upstream Wakool 4.01 m 29/06/2017 6:00 Not measured Not measured Not measured Not measured Not measured Not measured Full data
River Gauge Stoney Crossing Murray 1.45 m 29/06/2017 5:45 490 ML/Day 29/06/2017 5:45 Not measured 483.8 ML/d28/06/2017 7:45 10.0°C 29/06/2017 5:45 417.9 μS/cm 29/06/2017 5:45 Not measured Full data
River Gauge Swan Hill Murray 0.84 m 29/06/2017 5:15 3355 ML/Day 29/06/2017 5:15 Not measured Not measured 9.6°C 29/06/2017 5:15 119.2 μS/cm 29/06/2017 5:15 Not measured Full data
River Gauge Tallandoon Mitta 1.33 m 29/06/2017 5:45 482 ML/Day 29/06/2017 5:45 Not measured Not measured 8.1°C 29/06/2017 5:45 56.6 μS/cm 29/06/2017 5:45 Not measured Full data
River Gauge Tauwitchere Barrage Murray 0.67 m 29/06/2017 4:45 Not measured Not measured Not measured Not measured Not measured Not measured Full data
River Gauge Tocumwal Murray 1.37 m 29/06/2017 5:15 3805 ML/Day 29/06/2017 5:15 Not measured Not measured 8.8°C 29/06/2017 5:15 71.8 μS/cm 29/06/2017 5:15 Not measured Full data
River Gauge Torrumbarry Headworks Murray 83.79 m 29/06/2017 5:45 Not measured Not measured 424.2 ML/d29/06/2017 5:45 Not measured Not measured Not measured Full data
Weirs Torrumbarry Weir Downstream Murray 2.04 m 29/06/2017 5:45 5644 ML/Day 29/06/2017 5:45 Not measured Not measured 9.0°C 29/06/2017 5:45 86.7 μS/cm 29/06/2017 5:45 Not measured Full data
Weirs Torrumbarry Weir Upstream Murray 85.7 m 28/06/2017 8:45 Not measured 34 GL 28/06/2017 8:45 Not measured 9.2°C 28/06/2017 8:45 82.9 μS/cm 28/06/2017 8:45 0.0 mm 28/06/2017 9:00 Full data
River Gauge Wakool Canal Wakool -0.56 m 29/06/2017 5:45 Not measured Not measured 0.0 ML/d28/06/2017 8:45 Not measured Not measured Not measured Full data
River Gauge Wakool Junction Murray 2.21 m 29/06/2017 5:45 4159 ML/Day 29/06/2017 5:45 Not measured Not measured 9.9°C 29/06/2017 5:45 159.6 μS/cm 29/06/2017 5:45 Not measured Full data
River Gauge Weir 32 Upstream Darling 1.48 m 29/06/2017 4:45 413 ML/Day 29/06/2017 4:45 Not measured Not measured 12.5°C 29/06/2017 4:45 627.0 μS/cm 29/06/2017 4:45 Not measured Full data
Weirs Wentworth Weir Murray 27.59 m 29/06/2017 5:45 Not measured Not measured 5545.0 ML/d28/06/2017 7:45 Not measured 222.9 μS/cm 28/06/2017 7:45 0.0 mm 27/06/2017 9:00 Full data
River Gauge Wilcania Darling 0.93 m 29/06/2017 5:45 677 ML/Day 29/06/2017 5:45 Not measured Not measured 11.3°C 29/06/2017 5:45 367.3 μS/cm 29/06/2017 5:45 Not measured Full data
River Gauge Yarrawonga Main Channel Murray 122.83 m 29/06/2017 5:45 Not measured Not measured 100.5 ML/d28/06/2017 8:45 Not measured Not measured Not measured Full data
Weirs Yarrawonga Weir Downstream Murray 0.74 m 29/06/2017 5:45 3989 ML/Day 29/06/2017 5:45 Not measured Not measured 9.4°C 29/06/2017 5:45 45.9 μS/cm 29/06/2017 5:45 Not measured Full data
Weirs Yarrawonga Weir Upstream Murray 124.72 m 29/06/2017 5:45 Not measured Not measured Not measured Not measured Not measured 0.2 mm 28/06/2017 9:00 Full data